aviador You're here:

KSGF Decoded Metar

SPRINGFIELD in MO, USA
Report Time2017-09-24 00:52:00
UTC Time2017-09-24 01:21:18
Flight Rules vfr VFR
Wind110° at 05 kt
W.Decomp.*RWY 14: 4.2 kt HW 2.7 kt LCW
RWY 02: 0.3 kt HW 5.0 kt RCW
W.Rank110° ranks 31
Current wind is below 110° avg. (7.1)
Visibility9999 m
Phenomena:N/A
Clouds:N/A
Expected CloudBase > 3,200 ft AGL from Temp-Dew spread
CeilingNone
Temp26°C (ISA +14)
Dew Point18°C (61% RH)
QNH1015 hPa
Density Alt3,051 ft
Elevation1,280 ft
Report Wrong Elevation
Raw Report
KSGF 240052Z 11005KT 10SM CLR 26/18 A2997 RMK AO2 SLP136
T02560178=

Extra information for KSGF:More info

Metar Taf Metar & Taf Last 4 Metars F.Rules Stats Wind Profile Meteogram Temp Stats Airport Information Weather charts Add Link Nearby VenuesMetar ALERT Operation Metar Decoded Social comments

AIRNAV info for KSGF